Captain Ron L — WDD5492 — position and weather

sailwx.info

Track history (hours):
 
Tides and Currents Weather Stations Pressure Air Temp Water Temp Dewpoint Dewpoint Depression Visibility Wind Speed Wind Dir Waves Ship Positions

Captain Ron L

Owner: Vulcan Materials Company, Richmond, VA. More information available from US FCC via Universal Licensing System and Coast Guard Vessel Documentation Center.

Last reported at 2018-Apr-20 22:10 UTC. Time now 2018-Apr-22 16:24 UTC.
Position N 36°50' W 076°17'.

Length 16 m; draft 2.3 m.

Type: Tug. MMSI: 367159130.

Date/timePositionNaut miles runAvg speedWind from/ knotsBaromVisibWave heightAir tempDewpointWater temp
2018-Apr-20 22:10N 36°50' W 076°17'1 4.5
2018-Apr-20 22:00N 36°50' W 076°17'1 1.7
2018-Apr-20 21:30N 36°51' W 076°18'2 3.6
2018-Apr-20 20:55N 36°51' W 076°20'2 5.3
2018-Apr-20 20:30N 36°50' W 076°18'4 7.0
2018-Apr-20 20:00N 36°47' W 076°18'1 1.1
2018-Apr-20 19:30N 36°47' W 076°18'1 1.5
2018-Apr-20 19:00N 36°47' W 076°18'3 6.1
2018-Apr-20 18:30N 36°50' W 076°18'2 4.7
2018-Apr-20 18:00N 36°50' W 076°15'1 1.7
2018-Apr-20 17:29N 36°50' W 076°16'3 5.9
2018-Apr-20 17:00N 36°52' W 076°19'0 0.2
2018-Apr-20 16:30N 36°52' W 076°19'2 3.3
2018-Apr-20 16:00N 36°50' W 076°17'0 0.0
2018-Apr-20 15:30N 36°50' W 076°17'0 0.0
2018-Apr-20 15:00N 36°50' W 076°17'0 0.0
2018-Apr-20 14:30N 36°50' W 076°17'0 0.0
2018-Apr-20 14:00N 36°50' W 076°17'0 0.0
2018-Apr-20 13:30N 36°50' W 076°17'0 0.0
2018-Apr-20 13:00N 36°50' W 076°17'0 0.0
2018-Apr-20 12:30N 36°50' W 076°17'0 0.0
2018-Apr-20 12:00N 36°50' W 076°17'0 0.0
2018-Apr-20 11:30N 36°50' W 076°17'0 0.0
2018-Apr-20 11:00N 36°50' W 076°17'0 0.0
2018-Apr-20 10:30N 36°50' W 076°17'0 0.0
2018-Apr-19 20:14N 36°50' W 076°17'1 3.5
2018-Apr-19 20:00N 36°50' W 076°16'1 2.4
2018-Apr-19 19:26N 36°50' W 076°15'1 1.2
2018-Apr-19 19:00N 36°50' W 076°15'0 0.6
2018-Apr-19 18:29N 36°50' W 076°16'0 0.0
2018-Apr-19 17:42N 36°50' W 076°16'0 0.0
2018-Apr-19 17:22N 36°50' W 076°16'0 0.3
2018-Apr-19 16:49N 36°50' W 076°16'1 2.0
2018-Apr-19 16:29N 36°50' W 076°15'1 1.0
2018-Apr-19 15:33N 36°50' W 076°16'0 0.0
2018-Apr-19 14:48N 36°50' W 076°16'0 0.1
2018-Apr-19 14:23N 36°50' W 076°16'1 2.4
2018-Apr-19 14:00N 36°50' W 076°15'1 1.6
2018-Apr-19 13:29N 36°50' W 076°16'1 2.2
2018-Apr-19 13:00N 36°50' W 076°17'1 2.1
2018-Apr-19 12:30N 36°49' W 076°17'2 3.5
2018-Apr-19 12:00N 36°48' W 076°18'3 5.7
2018-Apr-19 11:30N 36°50' W 076°17'2 3.8
2018-Apr-19 11:00N 36°50' W 076°15'2 4.3
2018-Apr-19 10:30N 36°51' W 076°18'0 0.0
2018-Apr-18 19:24N 36°50' W 076°17'2 5.2
2018-Apr-18 19:00N 36°52' W 076°20'0 0.6
2018-Apr-18 18:31N 36°51' W 076°20'0 0.0
2018-Apr-18 18:00N 36°51' W 076°20'0 0.0
2018-Apr-18 17:30N 36°51' W 076°20'0 0.0
2018-Apr-18 17:00N 36°51' W 076°20'0 0.5
2018-Apr-18 16:31N 36°51' W 076°20'3 5.8
2018-Apr-18 16:01N 36°50' W 076°16'1 1.9
2018-Apr-18 15:30N 36°50' W 076°18'1 2.7
2018-Apr-18 14:58N 36°50' W 076°16'1 1.7
2018-Apr-18 14:30N 36°50' W 076°15'0 0.2
2018-Apr-18 14:00N 36°50' W 076°15'2 4.5
2018-Apr-18 13:31N 36°50' W 076°18'3 5.6
2018-Apr-18 13:00N 36°47' W 076°18'0 0.1
2018-Apr-18 12:30N 36°48' W 076°18'1 1.2
2018-Apr-18 12:01N 36°48' W 076°18'2 4.6
2018-Apr-18 11:30N 36°50' W 076°17'0 0.0
2018-Apr-16 19:28N 36°50' W 076°17'0 0.0
2018-Apr-16 19:00N 36°50' W 076°17'0 0.0
2018-Apr-16 18:30N 36°50' W 076°17'0 0.0
2018-Apr-16 18:00N 36°50' W 076°17'0 0.0
2018-Apr-16 17:30N 36°50' W 076°17'1 2.8
2018-Apr-16 17:00N 36°50' W 076°16'1 1.3
2018-Apr-16 16:24N 36°50' W 076°15'1 2.0
2018-Apr-16 15:58N 36°50' W 076°16'3 5.5
2018-Apr-16 15:30N 36°51' W 076°19'0 0.3
2018-Apr-16 14:59N 36°52' W 076°19'3 5.3
2018-Apr-16 14:28N 36°50' W 076°16'1 1.1
2018-Apr-16 14:00N 36°50' W 076°15'0 0.6
2018-Apr-16 13:27N 36°50' W 076°15'1 0.6
2018-Apr-16 12:09N 36°50' W 076°16'0 0.0
2018-Apr-16 11:54N 36°50' W 076°16'1 2.6
2018-Apr-16 11:30N 36°50' W 076°17'  
2018-Apr-13 20:47N 36°50' W 076°17'1 3.7
2018-Apr-13 20:30N 36°50' W 076°16'1 1.8
2018-Apr-13 19:49N 36°50' W 076°15'0 0.0
2018-Apr-13 19:21N 36°50' W 076°15'0 0.0
2018-Apr-13 19:00N 36°50' W 076°15'0 0.1
2018-Apr-13 18:28N 36°50' W 076°15'0 0.1
2018-Apr-13 17:57N 36°50' W 076°15'1 2.3
2018-Apr-13 17:30N 36°50' W 076°16'0 0.9
2018-Apr-13 17:00N 36°50' W 076°15'0 0.7
2018-Apr-13 16:30N 36°50' W 076°16'0 0.0
2018-Apr-13 16:00N 36°50' W 076°16'0 0.0
2018-Apr-13 15:30N 36°50' W 076°16'1 1.1
2018-Apr-13 15:00N 36°50' W 076°17'1 1.0
2018-Apr-13 14:30N 36°50' W 076°16'0 0.1
2018-Apr-13 13:54N 36°50' W 076°16'0 0.1
2018-Apr-13 13:29N 36°50' W 076°16'0 0.1
2018-Apr-13 13:00N 36°50' W 076°16'0 0.3
2018-Apr-13 12:30N 36°50' W 076°16'0 0.2
2018-Apr-13 12:00N 36°50' W 076°16'1 1.6
2018-Apr-13 11:29N 36°50' W 076°15'2 0.1
2018-Apr-12 19:50N 36°50' W 076°17'1 2.1
2018-Apr-12 19:30N 36°50' W 076°17'1 1.3
2018-Apr-12 19:00N 36°50' W 076°16'0 0.0
2018-Apr-12 18:30N 36°50' W 076°16'0 0.0
2018-Apr-12 18:00N 36°50' W 076°16'0 0.1
2018-Apr-12 17:30N 36°50' W 076°16'1 1.7
2018-Apr-12 16:58N 36°50' W 076°15'1 1.8
2018-Apr-12 16:30N 36°50' W 076°16'0 0.0
2018-Apr-12 14:37N 36°50' W 076°16'0 0.2
2018-Apr-12 14:30N 36°50' W 076°16'1 1.5
2018-Apr-12 13:58N 36°50' W 076°15'1 1.8
2018-Apr-12 13:30N 36°50' W 076°16'0 0.2
2018-Apr-12 13:00N 36°50' W 076°16'0 0.1
2018-Apr-12 12:30N 36°50' W 076°16'1 2.6
2018-Apr-12 12:00N 36°50' W 076°17'0 0.0
2018-Apr-12 11:30N 36°50' W 076°17'0 0.0
2018-Apr-11 18:37N 36°50' W 076°17'0 0.1
2018-Apr-11 18:30N 36°50' W 076°17'0 0.6
2018-Apr-11 18:00N 36°50' W 076°17'2 4.0
2018-Apr-11 17:30N 36°50' W 076°15'1 1.4
2018-Apr-11 17:00N 36°50' W 076°16'2 3.2
2018-Apr-11 16:30N 36°50' W 076°18'0 0.3
2018-Apr-11 16:00N 36°50' W 076°17'0 0.0
2018-Apr-11 15:30N 36°50' W 076°17'1 2.4
2018-Apr-11 15:00N 36°50' W 076°16'1 1.9
2018-Apr-11 14:30N 36°50' W 076°15'1 1.5
2018-Apr-11 14:00N 36°50' W 076°16'1 1.7
2018-Apr-11 13:30N 36°50' W 076°15'2 4.5
2018-Apr-11 13:00N 36°50' W 076°17'2 3.5
2018-Apr-11 12:22N 36°50' W 076°15'0 0.1
2018-Apr-11 11:48N 36°50' W 076°15'2 6.1
2018-Apr-11 11:30N 36°50' W 076°17'  
Track history (hours):
 
Tides and Currents Weather Stations Pressure Air Temp Water Temp Dewpoint Dewpoint Depression Visibility Wind Speed Wind Dir Waves Ship Positions

Captain Ron L

Owner: Vulcan Materials Company, Richmond, VA. More information available from US FCC via Universal Licensing System and Coast Guard Vessel Documentation Center.

Last reported at 2018-Apr-20 22:10 UTC. Time now 2018-Apr-22 16:24 UTC.
Position N 36°50' W 076°17'.

Length 16 m; draft 2.3 m.

Type: Tug. MMSI: 367159130.

Date/timePositionNaut miles runAvg speedWind from/ knotsBaromVisibWave heightAir tempDewpointWater temp
2018-Apr-20 22:10N 36°50' W 076°17'1 4.5
2018-Apr-20 22:00N 36°50' W 076°17'1 1.7
2018-Apr-20 21:30N 36°51' W 076°18'2 3.6
2018-Apr-20 20:55N 36°51' W 076°20'2 5.3
2018-Apr-20 20:30N 36°50' W 076°18'4 7.0
2018-Apr-20 20:00N 36°47' W 076°18'1 1.1
2018-Apr-20 19:30N 36°47' W 076°18'1 1.5
2018-Apr-20 19:00N 36°47' W 076°18'3 6.1
2018-Apr-20 18:30N 36°50' W 076°18'2 4.7
2018-Apr-20 18:00N 36°50' W 076°15'1 1.7
2018-Apr-20 17:29N 36°50' W 076°16'3 5.9
2018-Apr-20 17:00N 36°52' W 076°19'0 0.2
2018-Apr-20 16:30N 36°52' W 076°19'2 3.3
2018-Apr-20 16:00N 36°50' W 076°17'0 0.0
2018-Apr-20 15:30N 36°50' W 076°17'0 0.0
2018-Apr-20 15:00N 36°50' W 076°17'0 0.0
2018-Apr-20 14:30N 36°50' W 076°17'0 0.0
2018-Apr-20 14:00N 36°50' W 076°17'0 0.0
2018-Apr-20 13:30N 36°50' W 076°17'0 0.0
2018-Apr-20 13:00N 36°50' W 076°17'0 0.0
2018-Apr-20 12:30N 36°50' W 076°17'0 0.0
2018-Apr-20 12:00N 36°50' W 076°17'0 0.0
2018-Apr-20 11:30N 36°50' W 076°17'0 0.0
2018-Apr-20 11:00N 36°50' W 076°17'0 0.0
2018-Apr-20 10:30N 36°50' W 076°17'0 0.0
2018-Apr-19 20:14N 36°50' W 076°17'1 3.5
2018-Apr-19 20:00N 36°50' W 076°16'1 2.4
2018-Apr-19 19:26N 36°50' W 076°15'1 1.2
2018-Apr-19 19:00N 36°50' W 076°15'0 0.6
2018-Apr-19 18:29N 36°50' W 076°16'0 0.0
2018-Apr-19 17:42N 36°50' W 076°16'0 0.0
2018-Apr-19 17:22N 36°50' W 076°16'0 0.3
2018-Apr-19 16:49N 36°50' W 076°16'1 2.0
2018-Apr-19 16:29N 36°50' W 076°15'1 1.0
2018-Apr-19 15:33N 36°50' W 076°16'0 0.0
2018-Apr-19 14:48N 36°50' W 076°16'0 0.1
2018-Apr-19 14:23N 36°50' W 076°16'1 2.4
2018-Apr-19 14:00N 36°50' W 076°15'1 1.6
2018-Apr-19 13:29N 36°50' W 076°16'1 2.2
2018-Apr-19 13:00N 36°50' W 076°17'1 2.1
2018-Apr-19 12:30N 36°49' W 076°17'2 3.5
2018-Apr-19 12:00N 36°48' W 076°18'3 5.7
2018-Apr-19 11:30N 36°50' W 076°17'2 3.8
2018-Apr-19 11:00N 36°50' W 076°15'2 4.3
2018-Apr-19 10:30N 36°51' W 076°18'0 0.0
2018-Apr-18 19:24N 36°50' W 076°17'2 5.2
2018-Apr-18 19:00N 36°52' W 076°20'0 0.6
2018-Apr-18 18:31N 36°51' W 076°20'0 0.0
2018-Apr-18 18:00N 36°51' W 076°20'0 0.0
2018-Apr-18 17:30N 36°51' W 076°20'0 0.0
2018-Apr-18 17:00N 36°51' W 076°20'0 0.5
2018-Apr-18 16:31N 36°51' W 076°20'3 5.8
2018-Apr-18 16:01N 36°50' W 076°16'1 1.9
2018-Apr-18 15:30N 36°50' W 076°18'1 2.7
2018-Apr-18 14:58N 36°50' W 076°16'1 1.7
2018-Apr-18 14:30N 36°50' W 076°15'0 0.2
2018-Apr-18 14:00N 36°50' W 076°15'2 4.5
2018-Apr-18 13:31N 36°50' W 076°18'3 5.6
2018-Apr-18 13:00N 36°47' W 076°18'0 0.1
2018-Apr-18 12:30N 36°48' W 076°18'1 1.2
2018-Apr-18 12:01N 36°48' W 076°18'2 4.6
2018-Apr-18 11:30N 36°50' W 076°17'0 0.0
2018-Apr-16 19:28N 36°50' W 076°17'0 0.0
2018-Apr-16 19:00N 36°50' W 076°17'0 0.0
2018-Apr-16 18:30N 36°50' W 076°17'0 0.0
2018-Apr-16 18:00N 36°50' W 076°17'0 0.0
2018-Apr-16 17:30N 36°50' W 076°17'1 2.8
2018-Apr-16 17:00N 36°50' W 076°16'1 1.3
2018-Apr-16 16:24N 36°50' W 076°15'1 2.0
2018-Apr-16 15:58N 36°50' W 076°16'3 5.5
2018-Apr-16 15:30N 36°51' W 076°19'0 0.3
2018-Apr-16 14:59N 36°52' W 076°19'3 5.3
2018-Apr-16 14:28N 36°50' W 076°16'1 1.1
2018-Apr-16 14:00N 36°50' W 076°15'0 0.6
2018-Apr-16 13:27N 36°50' W 076°15'1 0.6
2018-Apr-16 12:09N 36°50' W 076°16'0 0.0
2018-Apr-16 11:54N 36°50' W 076°16'1 2.6
2018-Apr-16 11:30N 36°50' W 076°17'  
2018-Apr-13 20:47N 36°50' W 076°17'1 3.7
2018-Apr-13 20:30N 36°50' W 076°16'1 1.8
2018-Apr-13 19:49N 36°50' W 076°15'0 0.0
2018-Apr-13 19:21N 36°50' W 076°15'0 0.0
2018-Apr-13 19:00N 36°50' W 076°15'0 0.1
2018-Apr-13 18:28N 36°50' W 076°15'0 0.1
2018-Apr-13 17:57N 36°50' W 076°15'1 2.3
2018-Apr-13 17:30N 36°50' W 076°16'0 0.9
2018-Apr-13 17:00N 36°50' W 076°15'0 0.7
2018-Apr-13 16:30N 36°50' W 076°16'0 0.0
2018-Apr-13 16:00N 36°50' W 076°16'0 0.0
2018-Apr-13 15:30N 36°50' W 076°16'1 1.1
2018-Apr-13 15:00N 36°50' W 076°17'1 1.0
2018-Apr-13 14:30N 36°50' W 076°16'0 0.1
2018-Apr-13 13:54N 36°50' W 076°16'0 0.1
2018-Apr-13 13:29N 36°50' W 076°16'0 0.1
2018-Apr-13 13:00N 36°50' W 076°16'0 0.3
2018-Apr-13 12:30N 36°50' W 076°16'0 0.2
2018-Apr-13 12:00N 36°50' W 076°16'1 1.6
2018-Apr-13 11:29N 36°50' W 076°15'2 0.1
2018-Apr-12 19:50N 36°50' W 076°17'1 2.1
2018-Apr-12 19:30N 36°50' W 076°17'1 1.3
2018-Apr-12 19:00N 36°50' W 076°16'0 0.0
2018-Apr-12 18:30N 36°50' W 076°16'0 0.0
2018-Apr-12 18:00N 36°50' W 076°16'0 0.1
2018-Apr-12 17:30N 36°50' W 076°16'1 1.7
2018-Apr-12 16:58N 36°50' W 076°15'1 1.8
2018-Apr-12 16:30N 36°50' W 076°16'0 0.0
2018-Apr-12 14:37N 36°50' W 076°16'0 0.2
2018-Apr-12 14:30N 36°50' W 076°16'1 1.5
2018-Apr-12 13:58N 36°50' W 076°15'1 1.8
2018-Apr-12 13:30N 36°50' W 076°16'0 0.2
2018-Apr-12 13:00N 36°50' W 076°16'0 0.1
2018-Apr-12 12:30N 36°50' W 076°16'1 2.6
2018-Apr-12 12:00N 36°50' W 076°17'0 0.0
2018-Apr-12 11:30N 36°50' W 076°17'0 0.0
2018-Apr-11 18:37N 36°50' W 076°17'0 0.1
2018-Apr-11 18:30N 36°50' W 076°17'0 0.6
2018-Apr-11 18:00N 36°50' W 076°17'2 4.0
2018-Apr-11 17:30N 36°50' W 076°15'1 1.4
2018-Apr-11 17:00N 36°50' W 076°16'2 3.2
2018-Apr-11 16:30N 36°50' W 076°18'0 0.3
2018-Apr-11 16:00N 36°50' W 076°17'0 0.0
2018-Apr-11 15:30N 36°50' W 076°17'1 2.4
2018-Apr-11 15:00N 36°50' W 076°16'1 1.9
2018-Apr-11 14:30N 36°50' W 076°15'1 1.5
2018-Apr-11 14:00N 36°50' W 076°16'1 1.7
2018-Apr-11 13:30N 36°50' W 076°15'2 4.5
2018-Apr-11 13:00N 36°50' W 076°17'2 3.5
2018-Apr-11 12:22N 36°50' W 076°15'0 0.1
2018-Apr-11 11:48N 36°50' W 076°15'2 6.1
2018-Apr-11 11:30N 36°50' W 076°17'  

Dump ship's entire track history